Time;durP1;ratioP1;P1;durP2;ratioP2;P2;SDS_P1;SDS_P2;PMS_P1;PMS_P2;Temp;Humidity;BMP_temperature;BMP_pressure;BME280_temperature;BME280_humidity;BME280_pressure;Samples;Min_cycle;Max_cycle;Signal;HPM_P1;HPM_P2
2022/02/04 00:20:56;;;;;;;;;;;;;;;28.03;18.69;101262.50;5070332;28;616;-46
2022/02/04 00:23:25;;;;;;;;;;;;;;;28.14;18.21;101263.13;5075715;28;802;-46
2022/02/04 00:28:33;;;;;;;;;;;;;;;27.67;19.14;101261.13;5077953;28;837;-46
2022/02/04 00:31:10;;;;;;;;;;;;;;;27.87;18.66;101267.00;5071352;28;800;-46
2022/02/04 00:33:38;;;;;;;;;;;;;;;27.56;18.75;101270.44;5079415;28;832;-47
2022/02/04 00:36:12;;;;;;;;;;;;;;;27.63;18.75;101266.03;5079166;28;811;-46
2022/02/04 00:38:42;;;;;;;;;;;;;;;27.83;18.79;101272.91;5078424;28;857;-45
2022/02/04 00:41:10;;;;;;;;;;;;;;;27.67;18.99;101269.22;5068976;28;833;-46
2022/02/04 00:43:37;;;;;;;;;;;;;;;27.58;19.18;101265.69;5054523;28;892;-46
2022/02/04 00:46:13;;;;;;;;;;;;;;;27.61;19.33;101264.53;5072101;28;1961;-46
2022/02/04 00:48:56;;;;;;;;;;;;;;;27.37;19.03;101261.72;5073158;28;1485;-46
2022/02/04 00:54:01;;;;;;;;;;;;;;;27.24;19.20;101262.22;5074690;28;752;-47
2022/02/04 01:26:08;;;;;;;;;;;;;;;27.17;19.10;101285.56;5078006;28;1910;-48
2022/02/04 01:28:34;;;;;;;;;;;;;;;27.40;19.21;101292.94;5078051;28;825;-47
2022/02/04 01:30:59;;;;;;;;;;;;;;;27.28;18.83;101297.03;5070759;28;863;-48
2022/02/04 01:33:25;;;;;;;;;;;;;;;26.99;19.10;101294.63;5075703;28;886;-48
2022/02/04 01:35:51;;;;;;;;;;;;;;;27.21;18.94;101300.38;5078314;28;801;-48
2022/02/04 01:38:16;;;;;;;;;;;;;;;27.69;18.60;101299.66;5077263;28;810;-47
2022/02/04 01:40:42;;;;;;;;;;;;;;;27.62;18.84;101304.91;5060053;28;959;-50
2022/02/04 01:43:07;;;;;;;;;;;;;;;27.54;18.99;101302.22;5077923;28;853;-47
2022/02/04 01:45:32;;;;;;;;;;;;;;;27.35;19.35;101300.72;5049261;28;1959;-47
2022/02/04 01:47:58;;;;;;;;;;;;;;;27.09;19.35;101301.75;5077971;28;809;-47
2022/02/04 01:50:23;;;;;;;;;;;;;;;26.98;19.46;101294.78;5077552;28;842;-47
2022/02/04 01:52:48;;;;;;;;;;;;;;;26.99;19.60;101300.03;5077395;28;833;-47
2022/02/04 01:55:14;;;;;;;;;;;;;;;26.99;19.34;101301.91;5059846;28;829;-48
2022/02/04 01:57:39;;;;;;;;;;;;;;;27.09;19.38;101309.84;5075685;28;878;-49
2022/02/04 02:00:05;;;;;;;;;;;;;;;27.04;19.42;101306.81;5075053;28;808;-48
2022/02/04 02:02:30;;;;;;;;;;;;;;;27.23;19.36;101311.00;5059755;28;901;-46
2022/02/04 02:04:55;;;;;;;;;;;;;;;27.18;19.48;101302.56;5076963;28;2243;-47
2022/02/04 02:07:22;;;;;;;;;;;;;;;27.36;19.20;101299.72;5077662;28;782;-46
2022/02/04 02:09:56;;;;;;;;;;;;;;;27.71;18.63;101304.91;5077429;28;810;-46
2022/02/04 02:12:25;;;;;;;;;;;;;;;27.69;18.64;101305.06;5073211;28;848;-47
2022/02/04 02:15:21;;;;;;;;;;;;;;;28.16;18.43;101298.97;5076571;28;871;-48
2022/02/04 02:44:54;;;;;;;;;;;;;;;27.78;18.71;101319.38;5068299;28;843;-48
2022/02/04 02:47:43;;;;;;;;;;;;;;;27.79;19.07;101310.28;5070133;28;898;-46
2022/02/04 02:50:39;;;;;;;;;;;;;;;27.72;18.96;101312.84;5075031;28;885;-47
2022/02/04 02:56:54;;;;;;;;;;;;;;;27.44;19.27;101324.03;5072223;28;616;-47
2022/02/04 02:58:37;;;;;;;;;;;;;;;27.62;18.90;101320.25;5068454;28;1390;-47
2022/02/04 03:01:05;;;;;;;;;;;;;;;27.74;19.04;101323.47;5067662;28;851;-46
2022/02/04 03:03:32;;;;;;;;;;;;;;;27.98;18.96;101324.38;5076420;28;794;-47
2022/02/04 03:05:58;;;;;;;;;;;;;;;28.07;18.43;101322.50;5058471;28;1981;-48
2022/02/04 03:08:24;;;;;;;;;;;;;;;28.18;18.69;101326.66;5076045;28;810;-47
2022/02/04 03:10:50;;;;;;;;;;;;;;;27.85;18.83;101316.84;5076912;28;933;-47
2022/02/04 03:13:15;;;;;;;;;;;;;;;28.02;18.80;101323.03;5075997;28;841;-47
2022/02/04 03:15:41;;;;;;;;;;;;;;;27.99;18.47;101324.22;5069631;28;906;-47
2022/02/04 03:18:18;;;;;;;;;;;;;;;27.79;18.68;101325.66;5076075;28;802;-47
2022/02/04 03:20:48;;;;;;;;;;;;;;;28.02;18.98;101320.34;5076365;28;822;-47
2022/02/04 03:23:13;;;;;;;;;;;;;;;28.11;18.50;101331.97;5076123;28;897;-47
2022/02/04 03:25:43;;;;;;;;;;;;;;;28.04;18.50;101326.41;5076469;28;1963;-48
2022/02/04 03:28:14;;;;;;;;;;;;;;;27.82;18.99;101325.28;5072652;28;865;-47
2022/02/04 03:30:41;;;;;;;;;;;;;;;27.81;18.96;101323.63;5072194;28;861;-48
2022/02/04 03:33:07;;;;;;;;;;;;;;;27.74;19.05;101324.28;5075506;28;1037;-48
2022/02/04 03:35:33;;;;;;;;;;;;;;;27.59;19.14;101318.72;5075707;28;845;-47
2022/02/04 03:37:58;;;;;;;;;;;;;;;27.56;18.94;101326.34;5075534;28;722;-48
2022/02/04 03:40:23;;;;;;;;;;;;;;;27.38;19.29;101320.13;5069417;28;861;-48
2022/02/04 03:42:49;;;;;;;;;;;;;;;27.32;19.47;101320.81;5075217;28;838;-48
2022/02/04 03:45:14;;;;;;;;;;;;;;;27.30;19.59;101328.25;5073919;28;1959;-47
2022/02/04 03:47:40;;;;;;;;;;;;;;;27.20;19.72;101323.03;5075720;28;845;-48
2022/02/04 03:50:05;;;;;;;;;;;;;;;27.06;19.86;101326.41;5075166;28;786;-47
2022/02/04 03:52:31;;;;;;;;;;;;;;;26.93;19.84;101334.94;5072238;28;912;-48
2022/02/04 03:54:56;;;;;;;;;;;;;;;27.28;19.63;101334.84;5075367;28;979;-47
2022/02/04 03:57:21;;;;;;;;;;;;;;;27.19;19.27;101337.53;5075933;28;742;-48
2022/02/04 03:59:47;;;;;;;;;;;;;;;27.39;19.37;101343.41;5069097;28;1012;-47
2022/02/04 04:02:13;;;;;;;;;;;;;;;27.46;19.19;101346.28;5056460;28;2326;-47
2022/02/04 04:04:39;;;;;;;;;;;;;;;27.53;18.96;101351.03;5073615;28;1260;-47
2022/02/04 04:07:04;;;;;;;;;;;;;;;27.49;19.17;101347.81;5070806;28;1976;-47
2022/02/04 04:09:29;;;;;;;;;;;;;;;27.74;18.75;101345.09;5074968;28;904;-47
2022/02/04 04:11:55;;;;;;;;;;;;;;;27.83;18.63;101346.75;5075434;28;807;-48
2022/02/04 04:14:21;;;;;;;;;;;;;;;27.87;18.75;101356.22;5071194;28;823;-47
2022/02/04 04:16:47;;;;;;;;;;;;;;;27.91;18.58;101359.38;5074992;28;818;-47
2022/02/04 04:19:13;;;;;;;;;;;;;;;27.64;18.64;101364.19;5072933;28;865;-46
2022/02/04 04:21:38;;;;;;;;;;;;;;;27.60;19.02;101357.41;5075532;28;763;-44
2022/02/04 04:24:03;;;;;;;;;;;;;;;27.80;18.75;101363.31;5074291;28;1709;-45
2022/02/04 04:26:28;;;;;;;;;;;;;;;27.94;18.57;101364.47;5075480;28;1963;-45
2022/02/04 04:28:54;;;;;;;;;;;;;;;27.45;19.09;101362.66;5073183;28;937;-47
2022/02/04 04:31:19;;;;;;;;;;;;;;;27.20;18.92;101362.69;5068531;28;1245;-42
2022/02/04 04:33:44;;;;;;;;;;;;;;;25.79;13.25;101364.72;5075424;28;885;-41
2022/02/04 04:36:10;;;;;;;;;;;;;;;25.41;13.73;101358.69;5075061;28;781;-42
2022/02/04 04:38:51;;;;;;;;;;;;;;;25.12;14.77;101366.06;5075200;28;824;-45
2022/02/04 05:25:43;;;;;;;;;;;;;;;26.62;17.16;101374.22;5074860;28;1902;-44
2022/02/04 05:30:46;;;;;;;;;;;;;;;26.04;14.29;101388.28;5077018;28;623;-44
2022/02/04 05:36:14;;;;;;;;;;;;;;;26.08;13.90;101389.66;5071882;28;699;-43
2022/02/04 05:38:41;;;;;;;;;;;;;;;25.92;14.28;101393.94;5077847;28;881;-43
2022/02/04 05:41:07;;;;;;;;;;;;;;;26.08;14.16;101399.56;5077969;28;734;-41
2022/02/04 05:43:35;;;;;;;;;;;;;;;26.24;13.76;101401.53;5070915;28;810;-41
2022/02/04 05:46:10;;;;;;;;;;;;;;;26.07;14.09;101400.59;5070866;28;1894;-43
2022/02/04 05:48:38;;;;;;;;;;;;;;;25.95;14.42;101406.25;5071624;28;853;-42
2022/02/04 05:51:52;;;;;;;;;;;;;;;26.03;14.00;101410.84;5077258;28;931;-41
2022/02/04 05:59:05;;;;;;;;;;;;;;;26.34;13.25;101404.13;5076888;28;903;-44
2022/02/04 06:01:40;;;;;;;;;;;;;;;26.13;13.31;101410.72;5076613;28;855;-43
2022/02/04 06:04:19;;;;;;;;;;;;;;;26.74;12.87;101417.94;5070970;28;843;-42
2022/02/04 06:22:37;;;;;;;;;;;;;;;25.82;13.41;101428.25;5061898;28;738;-44
2022/02/04 06:25:02;;;;;;;;;;;;;;;25.83;13.66;101423.69;5076099;28;1874;-43
2022/02/04 06:27:27;;;;;;;;;;;;;;;25.96;13.79;101428.69;5075484;28;1083;-44
2022/02/04 06:29:54;;;;;;;;;;;;;;;26.02;13.44;101428.88;5076557;28;897;-43
2022/02/04 06:32:20;;;;;;;;;;;;;;;25.87;13.57;101428.63;5076344;28;794;-43
2022/02/04 06:34:45;;;;;;;;;;;;;;;26.03;13.32;101429.72;5076815;28;795;-44
2022/02/04 06:37:11;;;;;;;;;;;;;;;25.72;13.68;101425.66;5077119;28;810;-43
2022/02/04 06:39:36;;;;;;;;;;;;;;;25.75;13.74;101429.88;5057705;28;918;-44
2022/02/04 06:42:02;;;;;;;;;;;;;;;25.96;13.29;101434.06;5076477;28;788;-42
2022/02/04 06:44:27;;;;;;;;;;;;;;;25.96;13.41;101431.38;5070821;28;906;-43
2022/02/04 06:46:52;;;;;;;;;;;;;;;26.03;13.64;101427.88;5071131;28;1959;-43
2022/02/04 06:49:17;;;;;;;;;;;;;;;26.29;13.75;101421.59;5073284;28;1417;-43
2022/02/04 06:51:43;;;;;;;;;;;;;;;26.48;14.31;101429.63;5042290;28;1320;-44
2022/02/04 06:54:08;;;;;;;;;;;;;;;26.29;15.17;101424.28;5069238;28;1318;-43
2022/02/04 06:56:35;;;;;;;;;;;;;;;26.37;15.57;101428.09;5068148;28;1496;-43
2022/02/04 06:59:01;;;;;;;;;;;;;;;26.36;15.81;101424.53;5073386;28;820;-43
2022/02/04 07:01:28;;;;;;;;;;;;;;;26.39;16.89;101424.19;5067953;28;1211;-43
2022/02/04 07:03:53;;;;;;;;;;;;;;;26.38;16.68;101421.66;5068584;28;1254;-43
2022/02/04 07:06:19;;;;;;;;;;;;;;;26.30;16.69;101430.53;5069853;28;1926;-42
2022/02/04 07:21:18;;;;;;;;;;;;;;;25.56;18.94;101431.72;5063979;28;1259;-43
2022/02/04 07:23:43;;;;;;;;;;;;;;;25.16;19.50;101432.03;5073819;28;850;-42
2022/02/04 07:26:08;;;;;;;;;;;;;;;25.29;19.37;101428.13;5069669;28;1975;-43
2022/02/04 07:31:09;;;;;;;;;;;;;;;26.42;17.83;101420.34;5860921;22;7135;-24
2022/02/04 07:33:42;;;;;;;;;;;;;;;26.81;17.74;101420.81;5069301;28;1223;-30
2022/02/04 07:41:34;;;;;;;;;;;;;;;27.06;17.32;101420.91;5069327;28;1360;-25
2022/02/04 07:44:00;;;;;;;;;;;;;;;27.13;17.41;101419.22;5072076;28;1254;-26
2022/02/04 07:46:25;;;;;;;;;;;;;;;27.10;17.45;101420.41;5074612;28;1991;-26
2022/02/04 07:48:51;;;;;;;;;;;;;;;27.00;17.77;101420.53;5075250;28;1238;-25
2022/02/04 07:51:17;;;;;;;;;;;;;;;27.17;17.68;101425.13;5073189;28;1424;-25
2022/02/04 07:53:42;;;;;;;;;;;;;;;26.89;18.11;101415.44;5068973;28;1239;-27
2022/02/04 07:56:07;;;;;;;;;;;;;;;26.80;17.94;101414.56;5073923;28;1396;-26
2022/02/04 07:58:33;;;;;;;;;;;;;;;26.86;17.94;101413.09;5069799;28;1286;-28
2022/02/04 08:00:59;;;;;;;;;;;;;;;26.68;18.09;101407.78;5071321;28;973;-25
2022/02/04 08:03:32;;;;;;;;;;;;;;;26.35;18.55;101406.66;5070193;28;1353;-27
2022/02/04 08:06:02;;;;;;;;;;;;;;;26.23;18.71;101405.22;5065347;28;1902;-25
2022/02/04 08:08:40;;;;;;;;;;;;;;;26.72;18.37;101399.22;5070750;28;1594;-26
2022/02/04 08:22:06;;;;;;;;;;;;;;;26.87;18.25;101395.88;5075352;28;864;-26
2022/02/04 08:24:54;;;;;;;;;;;;;;;27.02;17.85;101401.50;5073740;28;1159;-24
2022/02/04 08:51:23;;;;;;;;;;;;;;;27.55;17.84;101384.97;5075660;28;1306;-26
2022/02/04 08:54:00;;;;;;;;;;;;;;;27.21;18.74;101369.78;5076983;28;1360;-24
2022/02/04 08:56:52;;;;;;;;;;;;;;;26.50;18.44;101266.59;5074351;28;1293;-25
2022/02/04 08:59:27;;;;;;;;;;;;;;;27.34;18.16;101370.09;5074229;28;1510;-25
2022/02/04 09:02:00;;;;;;;;;;;;;;;27.45;18.18;101371.63;5073554;28;1427;-25
2022/02/04 09:04:40;;;;;;;;;;;;;;;27.69;17.82;101369.94;5076497;28;1114;-25
2022/02/04 09:07:09;;;;;;;;;;;;;;;27.69;17.95;101363.69;5076741;28;1906;-26
2022/02/04 09:09:56;;;;;;;;;;;;;;;26.99;17.95;101256.81;5073228;28;1404;-26
2022/02/04 09:22:58;;;;;;;;;;;;;;;27.24;18.62;101355.94;5069876;28;1238;-26
2022/02/04 09:25:25;;;;;;;;;;;;;;;27.12;18.28;101348.19;5076258;28;1960;-26
2022/02/04 09:27:50;;;;;;;;;;;;;;;27.07;19.06;101344.28;5073412;28;1210;-27
2022/02/04 09:30:16;;;;;;;;;;;;;;;27.09;18.92;101348.50;5075807;28;981;-27
2022/02/04 09:32:41;;;;;;;;;;;;;;;27.09;18.95;101336.88;5076160;28;1549;-25
2022/02/04 09:35:08;;;;;;;;;;;;;;;26.89;18.78;101339.88;5077119;28;776;-25
2022/02/04 09:37:33;;;;;;;;;;;;;;;27.01;18.95;101334.94;5071996;28;1340;-25
2022/02/04 09:39:58;;;;;;;;;;;;;;;27.22;18.69;101328.25;5076350;28;1325;-25
2022/02/04 09:42:24;;;;;;;;;;;;;;;27.23;18.62;101338.88;5073616;28;1032;-26
2022/02/04 09:44:50;;;;;;;;;;;;;;;27.34;18.55;101328.75;5076488;28;964;-24
2022/02/04 09:47:18;;;;;;;;;;;;;;;27.24;18.70;101327.06;5076095;28;1965;-23
2022/02/04 09:49:47;;;;;;;;;;;;;;;27.24;18.88;101329.75;5073941;28;1080;-22
2022/02/04 10:08:54;;;;;;;;;;;;;;;26.11;16.90;101313.81;5074870;28;1348;-26
2022/02/04 10:16:55;;;;;;;;;;;;;;;25.36;17.84;101291.84;5075586;28;1265;-26
2022/02/04 10:19:32;;;;;;;;;;;;;;;25.35;18.26;101302.78;5064346;28;1145;-26
2022/02/04 10:21:58;;;;;;;;;;;;;;;25.32;17.73;101295.88;5074343;28;1256;-24
2022/02/04 10:24:24;;;;;;;;;;;;;;;25.22;18.70;101308.56;5072348;28;1492;-25
2022/02/04 10:26:59;;;;;;;;;;;;;;;25.06;18.04;101304.75;5068262;28;1975;-24
2022/02/04 10:29:25;;;;;;;;;;;;;;;24.98;17.84;101292.06;5076233;28;1373;-25
2022/02/04 10:31:52;;;;;;;;;;;;;;;25.27;16.87;101287.41;5062301;28;1433;-24
2022/02/04 10:34:24;;;;;;;;;;;;;;;25.32;15.81;101287.78;5070751;28;1152;-24
2022/02/04 10:36:59;;;;;;;;;;;;;;;25.40;15.26;101285.16;5076153;28;1225;-25
2022/02/04 10:39:50;;;;;;;;;;;;;;;25.38;16.03;101280.91;5066883;28;1164;-25
2022/02/04 10:47:56;;;;;;;;;;;;;;;25.18;16.82;101259.56;5072823;28;1011;-24
2022/02/04 11:03:57;;;;;;;;;;;;;;;25.57;16.60;101239.44;5075359;28;1111;-23
2022/02/04 11:09:03;;;;;;;;;;;;;;;25.38;16.89;101227.91;5072761;28;1068;-24
2022/02/04 11:31:04;;;;;;;;;;;;;;;25.04;18.03;101199.91;5069767;28;1300;-25
2022/02/04 11:36:44;;;;;;;;;;;;;;;25.46;16.08;101207.41;5075298;28;764;-24
2022/02/04 11:48:37;;;;;;;;;;;;;;;26.60;17.39;101184.66;5072552;28;1321;-24
2022/02/04 11:51:15;;;;;;;;;;;;;;;26.48;17.64;101192.22;5072286;28;1554;-25
2022/02/04 11:54:18;;;;;;;;;;;;;;;26.26;17.68;101184.59;5074135;28;1253;-23
2022/02/04 11:56:28;;;;;;;;;;;;;;;26.00;18.21;101187.41;5072194;28;1407;-25
2022/02/04 11:58:57;;;;;;;;;;;;;;;25.75;18.38;101185.50;5073560;28;1607;-26
2022/02/04 12:01:24;;;;;;;;;;;;;;;25.83;18.41;101191.91;5068682;28;1361;-26
2022/02/04 12:03:49;;;;;;;;;;;;;;;26.03;18.36;101185.25;5072574;28;1297;-26
2022/02/04 12:06:27;;;;;;;;;;;;;;;26.06;18.19;101185.94;5070564;28;1988;-27
2022/02/04 12:08:53;;;;;;;;;;;;;;;26.06;18.37;101173.28;5071437;28;1241;-26
2022/02/04 12:11:20;;;;;;;;;;;;;;;26.03;18.80;101173.59;5071072;28;1199;-26
2022/02/04 12:14:04;;;;;;;;;;;;;;;26.06;18.54;101178.66;5072870;28;1451;-26
2022/02/04 12:16:29;;;;;;;;;;;;;;;26.01;18.13;101173.78;5066283;28;1592;-26
2022/02/04 12:19:07;;;;;;;;;;;;;;;25.83;16.59;101186.53;5068412;28;1507;-27
2022/02/04 12:21:41;;;;;;;;;;;;;;;25.43;16.09;101184.31;5071967;28;1523;-25
2022/02/04 12:24:07;;;;;;;;;;;;;;;25.31;15.91;101176.53;5082054;28;1427;-24
2022/02/04 12:26:36;;;;;;;;;;;;;;;25.56;16.38;101171.25;5077706;28;1889;-26
2022/02/04 12:29:13;;;;;;;;;;;;;;;25.72;17.93;101169.66;5076817;28;1377;-26
2022/02/04 12:31:40;;;;;;;;;;;;;;;25.63;18.15;101178.72;5075285;28;1058;-27
2022/02/04 12:34:07;;;;;;;;;;;;;;;25.65;18.45;101176.69;5078614;28;1542;-29
2022/02/04 12:36:33;;;;;;;;;;;;;;;24.93;16.38;101179.50;5078627;28;865;-29
2022/02/04 12:39:00;;;;;;;;;;;;;;;24.61;16.52;101174.69;5076024;28;1282;-29
2022/02/04 12:41:25;;;;;;;;;;;;;;;24.40;17.00;101186.59;5077022;28;1308;-27
2022/02/04 12:43:51;;;;;;;;;;;;;;;24.35;18.37;101160.19;5077146;28;859;-26
2022/02/04 12:46:17;;;;;;;;;;;;;;;24.45;19.60;101174.41;5076972;28;1910;-25
2022/02/04 12:48:53;;;;;;;;;;;;;;;24.83;18.88;101174.19;5074412;28;1226;-25
2022/02/04 12:51:28;;;;;;;;;;;;;;;24.82;19.12;101174.34;5075535;28;1277;-25
2022/02/04 12:53:54;;;;;;;;;;;;;;;24.81;19.75;101183.41;5076641;28;1368;-27
2022/02/04 12:56:33;;;;;;;;;;;;;;;24.94;19.28;101174.97;5074869;28;1262;-26
2022/02/04 12:59:37;;;;;;;;;;;;;;;24.94;19.27;101167.72;5071825;28;1238;-26
2022/02/04 13:02:23;;;;;;;;;;;;;;;24.88;20.18;101171.03;5072453;28;1257;-24
2022/02/04 13:07:44;;;;;;;;;;;;;;;25.00;20.13;101171.66;5072908;28;2003;-26
2022/02/04 13:10:09;;;;;;;;;;;;;;;25.00;19.90;101166.25;5077622;28;1337;-26
2022/02/04 13:12:51;;;;;;;;;;;;;;;25.09;20.23;101159.06;5075520;28;1505;-27
2022/02/04 13:15:17;;;;;;;;;;;;;;;25.38;19.58;101159.72;5069657;28;1166;-26
2022/02/04 13:17:42;;;;;;;;;;;;;;;25.52;19.89;101159.13;5077384;28;1278;-25
2022/02/04 13:20:07;;;;;;;;;;;;;;;26.37;17.68;101145.72;5078022;28;1098;-27
2022/02/04 13:22:34;;;;;;;;;;;;;;;27.70;15.51;101151.84;5070022;28;1013;-28
2022/02/04 13:25:06;;;;;;;;;;;;;;;28.17;15.15;101158.13;5075126;28;1399;-28
2022/02/04 13:27:32;;;;;;;;;;;;;;;28.61;15.41;101147.69;5069013;28;1984;-28
2022/02/04 13:29:57;;;;;;;;;;;;;;;28.55;14.86;101156.50;5071436;28;1235;-24
2022/02/04 13:32:23;;;;;;;;;;;;;;;28.85;14.30;101151.16;5070803;28;1244;-28
2022/02/04 13:34:48;;;;;;;;;;;;;;;28.98;13.96;101150.53;5072880;28;1316;-26
2022/02/04 13:37:28;;;;;;;;;;;;;;;28.98;13.72;101141.59;5073911;28;1538;-27
2022/02/04 13:40:01;;;;;;;;;;;;;;;29.16;14.08;101144.72;5070407;28;1315;-28
2022/02/04 13:42:39;;;;;;;;;;;;;;;28.38;13.80;101145.00;5068438;28;1343;-30
2022/02/04 13:45:23;;;;;;;;;;;;;;;28.12;15.34;101141.59;5074956;28;1056;-29
2022/02/04 13:47:58;;;;;;;;;;;;;;;27.57;15.28;101142.44;5069048;28;1472;-28
2022/02/04 13:50:45;;;;;;;;;;;;;;;27.44;14.57;101140.28;5067951;28;1229;-29
2022/02/04 13:53:31;;;;;;;;;;;;;;;27.31;14.98;101137.31;5074430;28;1245;-29
2022/02/04 13:56:13;;;;;;;;;;;;;;;27.33;15.42;101138.81;5075064;28;1363;-30
2022/02/04 13:58:48;;;;;;;;;;;;;;;27.06;16.54;101132.00;5074955;28;1421;-30
2022/02/04 14:01:19;;;;;;;;;;;;;;;26.40;16.80;101131.03;5073639;28;1304;-24
2022/02/04 14:03:49;;;;;;;;;;;;;;;25.59;17.56;101131.53;5072159;28;1400;-25
2022/02/04 14:06:21;;;;;;;;;;;;;;;25.23;16.71;101132.56;5073924;28;1905;-24
2022/02/04 14:08:59;;;;;;;;;;;;;;;25.10;17.34;101125.78;5076963;28;907;-24
2022/02/04 14:11:30;;;;;;;;;;;;;;;24.75;16.17;101116.78;5072828;28;1154;-24
2022/02/04 14:13:55;;;;;;;;;;;;;;;24.58;16.63;101122.91;5073396;28;1241;-24
2022/02/04 14:16:21;;;;;;;;;;;;;;;24.31;18.19;101127.38;5071791;28;1190;-24
2022/02/04 14:18:46;;;;;;;;;;;;;;;24.32;17.13;101128.25;5075954;28;1353;-25
2022/02/04 14:21:12;;;;;;;;;;;;;;;24.47;16.62;101120.47;5076604;28;1169;-25
2022/02/04 14:23:39;;;;;;;;;;;;;;;24.51;18.76;101120.97;5063937;28;1372;-27
2022/02/04 14:26:17;;;;;;;;;;;;;;;24.75;19.40;101124.84;5070276;28;1963;-28
2022/02/04 14:31:37;;;;;;;;;;;;;;;25.34;19.01;101124.19;5070593;28;1220;-24
2022/02/04 14:36:41;;;;;;;;;;;;;;;24.94;19.09;101123.84;5072316;28;1359;-28
2022/02/04 15:00:56;;;;;;;;;;;;;;;25.09;20.23;101120.56;5075490;28;993;-26
2022/02/04 15:03:27;;;;;;;;;;;;;;;25.30;20.12;101118.31;5077119;28;804;-26
2022/02/04 15:06:04;;;;;;;;;;;;;;;25.57;19.61;101129.00;5076895;28;1894;-24
2022/02/04 15:08:31;;;;;;;;;;;;;;;25.70;19.06;101133.94;5074423;28;1571;-24
2022/02/04 15:11:00;;;;;;;;;;;;;;;25.75;19.34;101126.22;5071630;28;756;-25
2022/02/04 15:13:25;;;;;;;;;;;;;;;25.66;19.17;101128.03;5076557;28;777;-25
2022/02/04 15:15:50;;;;;;;;;;;;;;;25.90;19.02;101128.28;5076120;28;862;-25
2022/02/04 15:18:16;;;;;;;;;;;;;;;25.80;19.08;101125.72;5076618;28;809;-23
2022/02/04 15:20:41;;;;;;;;;;;;;;;25.89;19.18;101126.59;5069650;28;864;-26
2022/02/04 15:23:10;;;;;;;;;;;;;;;26.04;18.86;101124.91;5075605;28;1023;-26
2022/02/04 15:25:35;;;;;;;;;;;;;;;25.98;18.84;101125.59;5075959;28;1894;-23
2022/02/04 15:30:32;;;;;;;;;;;;;;;26.15;18.82;101141.78;5067715;28;1230;-24
2022/02/04 15:32:57;;;;;;;;;;;;;;;25.86;18.63;101133.16;5063725;28;1280;-23
2022/02/04 15:35:22;;;;;;;;;;;;;;;25.68;18.37;101139.50;5076966;28;776;-26
2022/02/04 15:37:48;;;;;;;;;;;;;;;25.43;18.96;101139.38;5076149;28;809;-24
2022/02/04 15:40:13;;;;;;;;;;;;;;;24.79;20.33;101145.06;5074058;28;1044;-26
2022/02/04 15:42:43;;;;;;;;;;;;;;;24.07;21.18;101144.94;5075871;28;1122;-26
2022/02/04 15:45:40;;;;;;;;;;;;;;;23.71;21.48;101145.75;5071712;28;1058;-24
2022/02/04 15:51:02;;;;;;;;;;;;;;;24.46;20.86;101143.81;5075646;28;1031;-24
2022/02/04 16:03:37;;;;;;;;;;;;;;;24.43;17.77;101141.44;5064367;28;1285;-25
2022/02/04 16:06:05;;;;;;;;;;;;;;;24.32;17.46;101136.31;5069477;28;2080;-24
2022/02/04 16:08:32;;;;;;;;;;;;;;;24.18;17.92;101133.16;5076216;28;1024;-26
2022/02/04 16:11:07;;;;;;;;;;;;;;;24.39;18.49;101140.03;5076168;28;853;-25
2022/02/04 16:13:42;;;;;;;;;;;;;;;24.80;17.85;101131.47;5069893;28;818;-27
2022/02/04 16:18:56;;;;;;;;;;;;;;;24.93;16.99;101140.97;5075553;28;1117;-24
2022/02/04 16:21:28;;;;;;;;;;;;;;;24.52;18.03;101138.81;5070186;28;1178;-25
2022/02/04 16:28:56;;;;;;;;;;;;;;;26.10;18.85;101133.34;5069008;28;1020;-24
2022/02/04 16:31:22;;;;;;;;;;;;;;;25.91;18.83;101135.34;5074325;28;1234;-24
2022/02/04 16:33:48;;;;;;;;;;;;;;;25.52;19.59;101126.81;5070874;28;1087;-24
2022/02/04 16:36:15;;;;;;;;;;;;;;;25.07;20.37;101131.47;5070903;28;1272;-24
2022/02/04 16:38:42;;;;;;;;;;;;;;;25.12;20.59;101139.06;5071648;28;1245;-22
2022/02/04 16:41:11;;;;;;;;;;;;;;;25.24;20.20;101136.94;5075892;28;851;-24
2022/02/04 16:43:36;;;;;;;;;;;;;;;25.19;20.34;101134.75;5074596;28;816;-24
2022/02/04 16:46:02;;;;;;;;;;;;;;;25.22;20.64;101126.34;5075641;28;1981;-24
2022/02/04 16:48:28;;;;;;;;;;;;;;;25.34;20.48;101134.97;5075352;28;844;-22
2022/02/04 16:50:53;;;;;;;;;;;;;;;25.40;20.37;101125.41;5073843;28;982;-24
2022/02/04 16:53:19;;;;;;;;;;;;;;;25.51;19.58;101135.03;5069277;28;1015;-25
2022/02/04 16:55:44;;;;;;;;;;;;;;;25.42;18.69;101126.09;5075954;28;752;-23
2022/02/04 16:58:10;;;;;;;;;;;;;;;24.93;18.30;101133.75;5074556;28;1111;-24
2022/02/04 17:00:35;;;;;;;;;;;;;;;24.71;17.02;101121.63;5069135;28;847;-24
2022/02/04 17:03:06;;;;;;;;;;;;;;;24.89;16.77;101129.66;5074872;28;787;-24
2022/02/04 17:05:39;;;;;;;;;;;;;;;25.49;16.64;101128.97;5072239;28;1898;-23
2022/02/04 17:08:07;;;;;;;;;;;;;;;24.52;15.57;101134.28;5072909;28;1027;-22
2022/02/04 17:10:35;;;;;;;;;;;;;;;24.91;15.85;101132.22;5078906;28;1429;-23
2022/02/04 17:13:01;;;;;;;;;;;;;;;25.52;15.75;101144.81;5079029;28;937;-24
2022/02/04 17:15:27;;;;;;;;;;;;;;;25.70;15.87;101142.03;5078710;28;890;-25
2022/02/04 17:17:53;;;;;;;;;;;;;;;25.60;15.97;101142.16;5079343;28;828;-25
2022/02/04 17:20:19;;;;;;;;;;;;;;;25.69;15.79;101140.38;5078852;28;909;-25
2022/02/04 17:22:46;;;;;;;;;;;;;;;26.39;15.44;101149.06;5079252;28;726;-26
2022/02/04 17:25:12;;;;;;;;;;;;;;;26.40;14.73;101142.69;5079202;28;756;-26
2022/02/04 17:27:38;;;;;;;;;;;;;;;26.71;14.45;101145.69;5078240;28;1897;-26
2022/02/04 17:30:05;;;;;;;;;;;;;;;26.88;13.88;101144.66;5075972;28;948;-26
2022/02/04 17:32:30;;;;;;;;;;;;;;;26.71;13.94;101143.81;5077484;28;1216;-26
2022/02/04 17:34:57;;;;;;;;;;;;;;;26.75;13.47;101142.47;5077437;28;869;-28
2022/02/04 17:37:22;;;;;;;;;;;;;;;26.87;13.57;101153.78;5077321;28;834;-26
2022/02/04 17:39:51;;;;;;;;;;;;;;;26.60;13.26;101150.44;5078297;28;785;-24
2022/02/04 17:42:22;;;;;;;;;;;;;;;27.00;14.04;101146.97;5078543;28;866;-24
2022/02/04 17:44:48;;;;;;;;;;;;;;;27.45;14.00;101149.22;5078557;28;877;-24
2022/02/04 17:47:14;;;;;;;;;;;;;;;27.83;14.24;101140.44;5077835;28;1914;-23
2022/02/04 17:49:50;;;;;;;;;;;;;;;28.20;13.88;101138.00;5078763;28;800;-24
2022/02/04 17:52:41;;;;;;;;;;;;;;;28.35;14.20;101138.94;5078016;28;813;-23
2022/02/04 17:55:07;;;;;;;;;;;;;;;28.46;14.43;101142.22;5077881;28;1281;-22
2022/02/04 18:00:31;;;;;;;;;;;;;;;28.53;14.76;101147.75;5077497;28;787;-24
2022/02/04 18:03:05;;;;;;;;;;;;;;;28.62;14.74;101146.63;5077773;28;1486;-23
2022/02/04 18:05:58;;;;;;;;;;;;;;;28.67;15.16;101146.09;5076739;28;2009;-23
2022/02/04 18:08:24;;;;;;;;;;;;;;;28.76;15.38;101138.72;5077579;28;911;-23
2022/02/04 18:10:49;;;;;;;;;;;;;;;28.73;15.44;101134.50;5077553;28;910;-23
2022/02/04 18:13:16;;;;;;;;;;;;;;;28.76;15.50;101134.13;5078115;28;793;-23
2022/02/04 18:15:42;;;;;;;;;;;;;;;28.25;15.47;101138.28;5075158;28;1094;-23
2022/02/04 18:18:11;;;;;;;;;;;;;;;27.85;15.91;101133.00;5077405;28;837;-23
2022/02/04 18:20:37;;;;;;;;;;;;;;;27.96;16.14;101134.47;5077611;28;841;-26
2022/02/04 18:23:02;;;;;;;;;;;;;;;27.34;14.89;101143.19;5076754;28;1152;-25
2022/02/04 18:25:29;;;;;;;;;;;;;;;27.44;14.83;101131.34;5077066;28;1956;-25
2022/02/04 18:27:55;;;;;;;;;;;;;;;27.83;14.05;101130.47;5077342;28;813;-24
2022/02/04 18:30:22;;;;;;;;;;;;;;;28.05;13.70;101132.53;5076858;28;890;-25
2022/02/04 18:32:47;;;;;;;;;;;;;;;27.81;13.75;101134.38;5076370;28;1462;-26
2022/02/04 18:35:16;;;;;;;;;;;;;;;27.58;13.79;101132.44;5077576;28;1404;-25
2022/02/04 18:37:47;;;;;;;;;;;;;;;28.59;13.64;101131.59;5077662;28;894;-24
2022/02/04 18:41:23;;;;;;;;;;;;;;;28.99;13.53;101130.56;5077515;28;806;-24
2022/02/04 18:43:55;;;;;;;;;;;;;;;28.87;14.00;101132.84;5073414;28;1442;-22
2022/02/04 18:45:49;;;;;;;;;;;;;;;28.84;14.48;101133.22;5064390;28;1979;-25
2022/02/04 18:48:18;;;;;;;;;;;;;;;28.84;14.70;101138.66;5077136;28;824;-22
2022/02/04 18:51:15;;;;;;;;;;;;;;;28.80;14.93;101130.03;5077465;28;916;-23
2022/02/04 18:53:43;;;;;;;;;;;;;;;28.81;15.22;101136.31;5076917;28;1630;-24
2022/02/04 18:58:36;;;;;;;;;;;;;;;28.92;15.14;101130.44;5076158;28;1225;-24